IBE1245 LECO-LEBB
Flight info
| Callsign | IBE1245 |
|---|---|
| Flight time | 0h 42m |
| Altitude | 30000 |
| Route | ROXER4D ROXER DCT LASKU M190 SNR SNR1W |
| Aircraft | A319/M-VGDW/C |
Departure
| Time | 2026-04-23 15:09 |
|---|---|
| Airport | A Coruña Airport (LECO) |
Arrival
| Time | 2026-04-23 15:52 |
|---|---|
| Airport | Bilbao Airport (LEBB) |
| Time | Latitude | Longitude | Altitude | Speed | Heading |
|---|---|---|---|---|---|
| 2026-04-23 15:00 | 43.30206 | -8.38051 | 340 ft | 0 kts | 301° |
| 2026-04-23 15:01 | 43.30197 | -8.38031 | 335 ft | 2 kts | 301° |
| 2026-04-23 15:02 | 43.30189 | -8.38009 | 337 ft | 3 kts | 253° |
| 2026-04-23 15:02 | 43.30193 | -8.37996 | 336 ft | 0 kts | 215° |
| 2026-04-23 15:04 | 43.30190 | -8.37999 | 337 ft | 1 kts | 215° |
| 2026-04-23 15:04 | 43.30189 | -8.38000 | 337 ft | 0 kts | 215° |
| 2026-04-23 15:05 | 43.30189 | -8.38001 | 337 ft | 1 kts | 215° |
| 2026-04-23 15:05 | 43.30163 | -8.38024 | 340 ft | 7 kts | 208° |
| 2026-04-23 15:05 | 43.30104 | -8.38058 | 337 ft | 11 kts | 202° |
| 2026-04-23 15:05 | 43.30024 | -8.38073 | 340 ft | 12 kts | 174° |
| 2026-04-23 15:06 | 43.29956 | -8.38023 | 348 ft | 11 kts | 132° |
| 2026-04-23 15:06 | 43.29902 | -8.37974 | 342 ft | 10 kts | 182° |
| 2026-04-23 15:06 | 43.29837 | -8.38022 | 345 ft | 12 kts | 212° |
| 2026-04-23 15:06 | 43.29753 | -8.38092 | 339 ft | 16 kts | 211° |
| 2026-04-23 15:07 | 43.29245 | -8.38554 | 339 ft | 13 kts | 237° |
| 2026-04-23 15:08 | 43.29184 | -8.38571 | 337 ft | 8 kts | 110° |
| 2026-04-23 15:08 | 43.29217 | -8.38518 | 339 ft | 9 kts | 27° |
| 2026-04-23 15:08 | 43.29349 | -8.38418 | 338 ft | 52 kts | 30° |
| 2026-04-23 15:09 | 43.30819 | -8.37218 | 671 ft | 161 kts | 30° |
| 2026-04-23 15:09 | 43.31681 | -8.36290 | 1601 ft | 158 kts | 46° |
| 2026-04-23 15:09 | 43.32345 | -8.34989 | 2102 ft | 179 kts | 57° |
| 2026-04-23 15:09 | 43.32914 | -8.33374 | 2502 ft | 198 kts | 68° |
| 2026-04-23 15:10 | 43.33195 | -8.32141 | 2747 ft | 212 kts | 71° |
| 2026-04-23 15:10 | 43.33781 | -8.29413 | 3617 ft | 225 kts | 73° |
| 2026-04-23 15:10 | 43.34215 | -8.27340 | 4463 ft | 227 kts | 75° |
| 2026-04-23 15:10 | 43.34649 | -8.25247 | 5268 ft | 229 kts | 77° |
| 2026-04-23 15:11 | 43.35079 | -8.23169 | 6057 ft | 230 kts | 77° |
| 2026-04-23 15:11 | 43.35514 | -8.21056 | 6848 ft | 231 kts | 78° |
| 2026-04-23 15:11 | 43.35954 | -8.18918 | 7570 ft | 234 kts | 78° |
| 2026-04-23 15:11 | 43.36391 | -8.16740 | 8292 ft | 238 kts | 82° |
| 2026-04-23 15:12 | 43.36499 | -8.14482 | 8979 ft | 240 kts | 100° |
| 2026-04-23 15:12 | 43.36131 | -8.12156 | 9286 ft | 260 kts | 109° |
| 2026-04-23 15:12 | 43.35633 | -8.09654 | 9717 ft | 280 kts | 109° |
| 2026-04-23 15:12 | 43.35120 | -8.07030 | 10299 ft | 293 kts | 109° |
| 2026-04-23 15:13 | 43.34576 | -8.04220 | 10562 ft | 316 kts | 109° |
| 2026-04-23 15:13 | 43.34012 | -8.01271 | 11061 ft | 329 kts | 108° |
| 2026-04-23 15:13 | 43.33431 | -7.98208 | 11762 ft | 334 kts | 108° |
| 2026-04-23 15:13 | 43.32839 | -7.95100 | 12498 ft | 339 kts | 108° |
| 2026-04-23 15:14 | 43.32238 | -7.91954 | 13233 ft | 343 kts | 109° |
| 2026-04-23 15:14 | 43.31628 | -7.88768 | 13907 ft | 347 kts | 109° |
| 2026-04-23 15:14 | 43.31010 | -7.85546 | 14553 ft | 351 kts | 109° |
| 2026-04-23 15:14 | 43.30387 | -7.82297 | 15216 ft | 353 kts | 109° |
| 2026-04-23 15:15 | 43.29759 | -7.79031 | 15865 ft | 355 kts | 109° |
| 2026-04-23 15:15 | 43.29125 | -7.75743 | 16503 ft | 358 kts | 109° |
| 2026-04-23 15:15 | 43.28492 | -7.72468 | 17149 ft | 361 kts | 109° |
| 2026-04-23 15:15 | 43.27844 | -7.69128 | 17800 ft | 364 kts | 109° |
| 2026-04-23 15:16 | 43.27189 | -7.65762 | 18419 ft | 367 kts | 109° |
| 2026-04-23 15:16 | 43.26526 | -7.62366 | 18963 ft | 370 kts | 109° |
| 2026-04-23 15:16 | 43.25858 | -7.58944 | 19481 ft | 373 kts | 109° |
| 2026-04-23 15:16 | 43.25183 | -7.55492 | 20011 ft | 377 kts | 109° |
| 2026-04-23 15:17 | 43.24500 | -7.52004 | 20549 ft | 380 kts | 110° |
| 2026-04-23 15:17 | 43.23811 | -7.48491 | 21080 ft | 383 kts | 110° |
| 2026-04-23 15:17 | 43.23121 | -7.44995 | 21600 ft | 387 kts | 110° |
| 2026-04-23 15:17 | 43.22415 | -7.41424 | 22117 ft | 390 kts | 110° |
| 2026-04-23 15:18 | 43.21803 | -7.37770 | 22635 ft | 398 kts | 103° |
| 2026-04-23 15:18 | 43.21655 | -7.33942 | 23136 ft | 408 kts | 92° |
| 2026-04-23 15:18 | 43.22018 | -7.30046 | 23613 ft | 416 kts | 84° |
| 2026-04-23 15:18 | 43.22531 | -7.26131 | 24028 ft | 419 kts | 85° |
| 2026-04-23 15:19 | 43.23041 | -7.22189 | 24446 ft | 421 kts | 85° |
| 2026-04-23 15:19 | 43.23546 | -7.18218 | 24789 ft | 425 kts | 85° |
| 2026-04-23 15:19 | 43.24051 | -7.14211 | 25179 ft | 428 kts | 85° |
| 2026-04-23 15:19 | 43.24552 | -7.10232 | 25589 ft | 430 kts | 85° |
| 2026-04-23 15:20 | 43.24898 | -7.07495 | 25846 ft | 432 kts | 85° |
| 2026-04-23 15:20 | 43.25576 | -7.02104 | 26372 ft | 435 kts | 85° |
| 2026-04-23 15:20 | 43.26092 | -6.98008 | 26767 ft | 437 kts | 85° |
| 2026-04-23 15:20 | 43.26611 | -6.93896 | 27140 ft | 439 kts | 85° |
| 2026-04-23 15:21 | 43.27128 | -6.89762 | 27519 ft | 441 kts | 85° |
| 2026-04-23 15:21 | 43.27643 | -6.85606 | 27925 ft | 443 kts | 85° |
| 2026-04-23 15:21 | 43.28148 | -6.81486 | 28270 ft | 445 kts | 85° |
| 2026-04-23 15:21 | 43.28662 | -6.77289 | 28630 ft | 447 kts | 85° |
| 2026-04-23 15:22 | 43.29181 | -6.73065 | 28962 ft | 450 kts | 85° |
| 2026-04-23 15:22 | 43.29702 | -6.68821 | 29349 ft | 452 kts | 85° |
| 2026-04-23 15:22 | 43.30225 | -6.64559 | 29712 ft | 454 kts | 85° |
| 2026-04-23 15:22 | 43.30749 | -6.60280 | 29956 ft | 455 kts | 85° |
| 2026-04-23 15:23 | 43.31267 | -6.56057 | 29985 ft | 444 kts | 85° |
| 2026-04-23 15:23 | 43.31781 | -6.51823 | 29996 ft | 455 kts | 85° |
| 2026-04-23 15:23 | 43.32299 | -6.47495 | 29996 ft | 464 kts | 85° |
| 2026-04-23 15:24 | 43.33352 | -6.38641 | 30002 ft | 481 kts | 85° |
| 2026-04-23 15:24 | 43.34447 | -6.29483 | 29999 ft | 489 kts | 84° |
| 2026-04-23 15:25 | 43.35549 | -6.20255 | 30006 ft | 490 kts | 85° |
| 2026-04-23 15:25 | 43.36456 | -6.12584 | 30001 ft | 490 kts | 85° |
| 2026-04-23 15:26 | 43.37710 | -6.01829 | 30007 ft | 491 kts | 84° |
| 2026-04-23 15:26 | 43.38780 | -5.92546 | 30007 ft | 492 kts | 84° |
| 2026-04-23 15:27 | 43.39851 | -5.83268 | 30005 ft | 491 kts | 84° |
| 2026-04-23 15:27 | 43.40917 | -5.73980 | 30009 ft | 492 kts | 84° |
| 2026-04-23 15:28 | 43.41958 | -5.64749 | 30003 ft | 492 kts | 84° |
| 2026-04-23 15:28 | 43.43000 | -5.55444 | 30009 ft | 492 kts | 84° |
| 2026-04-23 15:29 | 43.44038 | -5.46138 | 30016 ft | 492 kts | 84° |
| 2026-04-23 15:29 | 43.45073 | -5.36827 | 29865 ft | 493 kts | 84° |
| 2026-04-23 15:29 | 43.45587 | -5.32190 | 29497 ft | 484 kts | 84° |
| 2026-04-23 15:30 | 43.46085 | -5.27672 | 29215 ft | 470 kts | 84° |
| 2026-04-23 15:30 | 43.46560 | -5.23354 | 28944 ft | 457 kts | 84° |
| 2026-04-23 15:30 | 43.47027 | -5.19089 | 28671 ft | 445 kts | 84° |
| 2026-04-23 15:30 | 43.47479 | -5.14928 | 28407 ft | 434 kts | 84° |
| 2026-04-23 15:31 | 43.47919 | -5.10873 | 28140 ft | 424 kts | 84° |
| 2026-04-23 15:31 | 43.48347 | -5.06903 | 27874 ft | 414 kts | 84° |
| 2026-04-23 15:31 | 43.48763 | -5.03019 | 27612 ft | 406 kts | 85° |
| 2026-04-23 15:31 | 43.49170 | -4.99204 | 27354 ft | 399 kts | 85° |
| 2026-04-23 15:32 | 43.49565 | -4.95456 | 27096 ft | 393 kts | 85° |
| 2026-04-23 15:32 | 43.49953 | -4.91751 | 26836 ft | 390 kts | 84° |
| 2026-04-23 15:32 | 43.50294 | -4.88098 | 26592 ft | 389 kts | 89° |
| 2026-04-23 15:32 | 43.50274 | -4.84371 | 26304 ft | 390 kts | 97° |
| 2026-04-23 15:33 | 43.50072 | -4.80617 | 25879 ft | 398 kts | 97° |
| 2026-04-23 15:33 | 43.49864 | -4.76784 | 25438 ft | 403 kts | 97° |
| 2026-04-23 15:33 | 43.49658 | -4.72925 | 24990 ft | 404 kts | 97° |
| 2026-04-23 15:33 | 43.49452 | -4.69071 | 24532 ft | 403 kts | 97° |
| 2026-04-23 15:34 | 43.49248 | -4.65232 | 24075 ft | 401 kts | 97° |
| 2026-04-23 15:34 | 43.49043 | -4.61404 | 23596 ft | 401 kts | 97° |
| 2026-04-23 15:34 | 43.48836 | -4.57578 | 23065 ft | 399 kts | 97° |
| 2026-04-23 15:34 | 43.48633 | -4.53835 | 22602 ft | 396 kts | 96° |
| 2026-04-23 15:35 | 43.48428 | -4.50067 | 22129 ft | 394 kts | 96° |
| 2026-04-23 15:35 | 43.48233 | -4.46313 | 21646 ft | 392 kts | 96° |
| 2026-04-23 15:35 | 43.48053 | -4.42576 | 21164 ft | 390 kts | 96° |
| 2026-04-23 15:35 | 43.47881 | -4.38874 | 20684 ft | 386 kts | 96° |
| 2026-04-23 15:36 | 43.47710 | -4.35213 | 20211 ft | 381 kts | 96° |
| 2026-04-23 15:36 | 43.47536 | -4.31599 | 19744 ft | 376 kts | 96° |
| 2026-04-23 15:36 | 43.47342 | -4.28034 | 19281 ft | 371 kts | 96° |
| 2026-04-23 15:36 | 43.47131 | -4.24514 | 18818 ft | 367 kts | 97° |
| 2026-04-23 15:37 | 43.46914 | -4.21081 | 18371 ft | 363 kts | 97° |
| 2026-04-23 15:37 | 43.46696 | -4.17642 | 17884 ft | 359 kts | 97° |
| 2026-04-23 15:37 | 43.46550 | -4.15338 | 17584 ft | 355 kts | 97° |
| 2026-04-23 15:37 | 43.46269 | -4.10897 | 17009 ft | 349 kts | 97° |
| 2026-04-23 15:38 | 43.46064 | -4.07591 | 16586 ft | 345 kts | 97° |
| 2026-04-23 15:38 | 43.45863 | -4.04326 | 16165 ft | 341 kts | 97° |
| 2026-04-23 15:38 | 43.45663 | -4.01089 | 15753 ft | 338 kts | 97° |
| 2026-04-23 15:38 | 43.45461 | -3.97884 | 15343 ft | 335 kts | 98° |
| 2026-04-23 15:39 | 43.45260 | -3.94706 | 14934 ft | 332 kts | 98° |
| 2026-04-23 15:39 | 43.45064 | -3.91594 | 14533 ft | 330 kts | 97° |
| 2026-04-23 15:39 | 43.45084 | -3.88435 | 14134 ft | 331 kts | 87° |
| 2026-04-23 15:39 | 43.45285 | -3.85291 | 13723 ft | 330 kts | 88° |
| 2026-04-23 15:40 | 43.45487 | -3.82154 | 13282 ft | 328 kts | 88° |
| 2026-04-23 15:40 | 43.45686 | -3.79046 | 12874 ft | 325 kts | 87° |
| 2026-04-23 15:40 | 43.45882 | -3.75963 | 12467 ft | 322 kts | 87° |
| 2026-04-23 15:40 | 43.46073 | -3.72895 | 12107 ft | 322 kts | 87° |
| 2026-04-23 15:41 | 43.46264 | -3.69825 | 11690 ft | 322 kts | 88° |
| 2026-04-23 15:41 | 43.46388 | -3.67788 | 11416 ft | 323 kts | 88° |
| 2026-04-23 15:41 | 43.46632 | -3.63704 | 10849 ft | 324 kts | 88° |
| 2026-04-23 15:41 | 43.46817 | -3.60612 | 10422 ft | 325 kts | 88° |
| 2026-04-23 15:42 | 43.47004 | -3.57514 | 10074 ft | 322 kts | 88° |
| 2026-04-23 15:42 | 43.47190 | -3.54500 | 9926 ft | 311 kts | 88° |
| 2026-04-23 15:42 | 43.47373 | -3.51553 | 9465 ft | 310 kts | 88° |
| 2026-04-23 15:42 | 43.47546 | -3.48586 | 8898 ft | 309 kts | 88° |
| 2026-04-23 15:43 | 43.47707 | -3.45662 | 8397 ft | 302 kts | 88° |
| 2026-04-23 15:43 | 43.47819 | -3.43772 | 8058 ft | 297 kts | 88° |
| 2026-04-23 15:43 | 43.47991 | -3.40940 | 7412 ft | 296 kts | 87° |
| 2026-04-23 15:43 | 43.47979 | -3.37262 | 6776 ft | 283 kts | 103° |
| 2026-04-23 15:44 | 43.47276 | -3.34810 | 6268 ft | 271 kts | 126° |
| 2026-04-23 15:44 | 43.46267 | -3.32654 | 5684 ft | 268 kts | 115° |
| 2026-04-23 15:44 | 43.45663 | -3.30229 | 5104 ft | 266 kts | 110° |
| 2026-04-23 15:44 | 43.45302 | -3.28634 | 4774 ft | 262 kts | 110° |
| 2026-04-23 15:45 | 43.44519 | -3.26574 | 4858 ft | 226 kts | 133° |
| 2026-04-23 15:45 | 43.43427 | -3.25174 | 4835 ft | 207 kts | 142° |
| 2026-04-23 15:45 | 43.42359 | -3.23914 | 4719 ft | 199 kts | 133° |
| 2026-04-23 15:45 | 43.41586 | -3.22385 | 4596 ft | 191 kts | 123° |
| 2026-04-23 15:46 | 43.40796 | -3.20401 | 4614 ft | 169 kts | 120° |
| 2026-04-23 15:46 | 43.40269 | -3.18955 | 4350 ft | 170 kts | 119° |
| 2026-04-23 15:46 | 43.39911 | -3.17974 | 4172 ft | 171 kts | 119° |
| 2026-04-23 15:46 | 43.39384 | -3.16528 | 3929 ft | 172 kts | 119° |
| 2026-04-23 15:47 | 43.38860 | -3.15073 | 3707 ft | 168 kts | 118° |
| 2026-04-23 15:47 | 43.38347 | -3.13634 | 3460 ft | 167 kts | 117° |
| 2026-04-23 15:47 | 43.37833 | -3.12219 | 3255 ft | 164 kts | 117° |
| 2026-04-23 15:47 | 43.37322 | -3.10818 | 3008 ft | 163 kts | 118° |
| 2026-04-23 15:48 | 43.36827 | -3.09441 | 2810 ft | 159 kts | 117° |
| 2026-04-23 15:48 | 43.36183 | -3.07662 | 2538 ft | 156 kts | 117° |
| 2026-04-23 15:48 | 43.35854 | -3.06767 | 2411 ft | 156 kts | 116° |
| 2026-04-23 15:48 | 43.35368 | -3.05455 | 2189 ft | 153 kts | 117° |
| 2026-04-23 15:49 | 43.34892 | -3.04155 | 1962 ft | 157 kts | 119° |
| 2026-04-23 15:49 | 43.34403 | -3.02829 | 1850 ft | 153 kts | 118° |
| 2026-04-23 15:49 | 43.33931 | -3.01552 | 1653 ft | 149 kts | 116° |
| 2026-04-23 15:49 | 43.33469 | -3.00267 | 1402 ft | 152 kts | 116° |
| 2026-04-23 15:50 | 43.32980 | -2.98968 | 1173 ft | 151 kts | 117° |
| 2026-04-23 15:50 | 43.32520 | -2.97716 | 952 ft | 146 kts | 116° |
| 2026-04-23 15:50 | 43.32075 | -2.96466 | 785 ft | 142 kts | 115° |
| 2026-04-23 15:50 | 43.31643 | -2.95267 | 588 ft | 144 kts | 117° |
| 2026-04-23 15:51 | 43.31194 | -2.94036 | 415 ft | 150 kts | 118° |
| 2026-04-23 15:51 | 43.30729 | -2.92734 | 231 ft | 148 kts | 119° |
| 2026-04-23 15:51 | 43.30293 | -2.91562 | 126 ft | 121 kts | 117° |
| 2026-04-23 15:51 | 43.29983 | -2.90714 | 124 ft | 75 kts | 116° |
| 2026-04-23 15:52 | 43.29828 | -2.90282 | 127 ft | 26 kts | 116° |
| 2026-04-23 15:52 | 43.29747 | -2.90059 | 125 ft | 26 kts | 116° |
| 2026-04-23 15:52 | 43.29669 | -2.89838 | 126 ft | 25 kts | 110° |
| 2026-04-23 15:52 | 43.29668 | -2.89661 | 127 ft | 16 kts | 57° |
| 2026-04-23 15:53 | 43.29739 | -2.89581 | 128 ft | 12 kts | 360° |
| 2026-04-23 15:53 | 43.29785 | -2.89667 | 128 ft | 12 kts | 295° |
| 2026-04-23 15:53 | 43.29822 | -2.89769 | 126 ft | 12 kts | 297° |
| 2026-04-23 15:53 | 43.29861 | -2.89873 | 127 ft | 12 kts | 297° |
| 2026-04-23 15:54 | 43.29899 | -2.89979 | 126 ft | 12 kts | 296° |
| 2026-04-23 15:54 | 43.29940 | -2.90085 | 126 ft | 13 kts | 297° |
| 2026-04-23 15:54 | 43.29979 | -2.90196 | 127 ft | 13 kts | 294° |
| 2026-04-23 15:54 | 43.30017 | -2.90311 | 127 ft | 13 kts | 297° |